sensor_id;sensor_type;location;lat;lon;timestamp;pressure;altitude;pressure_sealevel;temperature;humidity
6680;BME280;3376;42.664;23.346;2023-03-15T00:00:51;93571.19;;;8.42;40.73
6680;BME280;3376;42.664;23.346;2023-03-15T00:03:20;93558.22;;;8.35;42.03
6680;BME280;3376;42.664;23.346;2023-03-15T00:05:49;93551.66;;;8.32;42.08
6680;BME280;3376;42.664;23.346;2023-03-15T00:08:18;93505.44;;;7.95;42.17
6680;BME280;3376;42.664;23.346;2023-03-15T00:10:46;93541.56;;;8.16;42.05
6680;BME280;3376;42.664;23.346;2023-03-15T00:13:15;93421.25;;;7.60;42.35
6680;BME280;3376;42.664;23.346;2023-03-15T00:15:46;93513.84;;;8.04;44.03
6680;BME280;3376;42.664;23.346;2023-03-15T00:18:14;93174.78;;;5.85;45.28
6680;BME280;3376;42.664;23.346;2023-03-15T00:20:41;93554.69;;;8.21;46.45
6680;BME280;3376;42.664;23.346;2023-03-15T00:23:08;93547.47;;;8.10;48.09
6680;BME280;3376;42.664;23.346;2023-03-15T00:25:36;93554.16;;;8.05;49.78
6680;BME280;3376;42.664;23.346;2023-03-15T00:28:04;93568.13;;;7.96;49.67
6680;BME280;3376;42.664;23.346;2023-03-15T00:30:31;93555.25;;;7.96;50.37
6680;BME280;3376;42.664;23.346;2023-03-15T00:32:57;93549.16;;;7.82;50.51
6680;BME280;3376;42.664;23.346;2023-03-15T00:35:24;93553.75;;;7.66;51.13
6680;BME280;3376;42.664;23.346;2023-03-15T00:37:53;93492.50;;;7.32;50.79
6680;BME280;3376;42.664;23.346;2023-03-15T00:40:20;93522.44;;;7.69;51.38
6680;BME280;3376;42.664;23.346;2023-03-15T00:42:48;93537.78;;;7.77;51.42
6680;BME280;3376;42.664;23.346;2023-03-15T00:45:16;93535.41;;;7.75;52.35
6680;BME280;3376;42.664;23.346;2023-03-15T00:47:43;93530.94;;;7.48;53.93
6680;BME280;3376;42.664;23.346;2023-03-15T00:50:10;93533.13;;;7.30;55.08
6680;BME280;3376;42.664;23.346;2023-03-15T00:52:37;93542.34;;;7.10;56.96
6680;BME280;3376;42.664;23.346;2023-03-15T00:55:10;93528.25;;;7.06;56.75
6680;BME280;3376;42.664;23.346;2023-03-15T00:57:38;93523.63;;;7.16;56.38
6680;BME280;3376;42.664;23.346;2023-03-15T01:00:09;93526.84;;;7.18;56.59
6680;BME280;3376;42.664;23.346;2023-03-15T01:02:36;93523.88;;;7.06;58.20
6680;BME280;3376;42.664;23.346;2023-03-15T01:05:04;93465.06;;;6.74;58.21
6680;BME280;3376;42.664;23.346;2023-03-15T01:07:31;93518.03;;;6.98;61.03
6680;BME280;3376;42.664;23.346;2023-03-15T01:09:59;93506.66;;;7.07;58.82
6680;BME280;3376;42.664;23.346;2023-03-15T01:12:25;93505.78;;;7.14;58.79
6680;BME280;3376;42.664;23.346;2023-03-15T01:14:52;93503.66;;;7.18;58.88
6680;BME280;3376;42.664;23.346;2023-03-15T01:17:20;93513.22;;;7.24;58.74
6680;BME280;3376;42.664;23.346;2023-03-15T01:19:47;93501.66;;;7.20;58.37
6680;BME280;3376;42.664;23.346;2023-03-15T01:22:15;93463.84;;;7.21;57.83
6680;BME280;3376;42.664;23.346;2023-03-15T01:24:42;93493.09;;;7.49;57.49
6680;BME280;3376;42.664;23.346;2023-03-15T01:27:09;93490.09;;;7.45;58.67
6680;BME280;3376;42.664;23.346;2023-03-15T01:29:36;93490.88;;;7.46;58.72
6680;BME280;3376;42.664;23.346;2023-03-15T01:32:03;93483.94;;;7.46;58.51
6680;BME280;3376;42.664;23.346;2023-03-15T01:34:31;93482.19;;;7.47;57.87
6680;BME280;3376;42.664;23.346;2023-03-15T01:36:58;93477.91;;;7.39;57.87
6680;BME280;3376;42.664;23.346;2023-03-15T01:39:25;93476.97;;;7.40;57.87
6680;BME280;3376;42.664;23.346;2023-03-15T01:41:52;93463.22;;;7.33;57.94
6680;BME280;3376;42.664;23.346;2023-03-15T01:44:19;93466.16;;;7.30;58.45
6680;BME280;3376;42.664;23.346;2023-03-15T01:46:47;93464.53;;;7.29;59.24
6680;BME280;3376;42.664;23.346;2023-03-15T01:49:16;93468.09;;;7.28;58.89
6680;BME280;3376;42.664;23.346;2023-03-15T01:51:52;93451.03;;;7.27;59.25
6680;BME280;3376;42.664;23.346;2023-03-15T01:54:25;93456.25;;;7.34;59.32
6680;BME280;3376;42.664;23.346;2023-03-15T01:56:58;93456.53;;;7.39;59.84
6680;BME280;3376;42.664;23.346;2023-03-15T01:59:28;93452.72;;;7.35;60.31
6680;BME280;3376;42.664;23.346;2023-03-15T02:01:57;93431.69;;;7.16;59.98
6680;BME280;3376;42.664;23.346;2023-03-15T02:04:28;93459.88;;;7.39;60.45
6680;BME280;3376;42.664;23.346;2023-03-15T02:06:59;93449.34;;;7.34;59.36
6680;BME280;3376;42.664;23.346;2023-03-15T02:09:33;93443.38;;;7.34;60.41
6680;BME280;3376;42.664;23.346;2023-03-15T02:12:03;93406.88;;;7.09;60.68
6680;BME280;3376;42.664;23.346;2023-03-15T02:14:31;93384.78;;;7.00;60.02
6680;BME280;3376;42.664;23.346;2023-03-15T02:16:58;93424.41;;;7.20;60.71
6680;BME280;3376;42.664;23.346;2023-03-15T02:19:34;93416.44;;;7.15;60.97
6680;BME280;3376;42.664;23.346;2023-03-15T02:22:15;93424.66;;;7.25;61.37
6680;BME280;3376;42.664;23.346;2023-03-15T02:24:50;93413.97;;;7.22;61.16
6680;BME280;3376;42.664;23.346;2023-03-15T02:27:26;93393.69;;;6.97;60.99
6680;BME280;3376;42.664;23.346;2023-03-15T02:29:54;93415.59;;;7.29;60.38
6680;BME280;3376;42.664;23.346;2023-03-15T02:32:21;93411.72;;;7.18;61.32
6680;BME280;3376;42.664;23.346;2023-03-15T02:34:48;93407.59;;;7.03;61.76
6680;BME280;3376;42.664;23.346;2023-03-15T02:37:14;93414.44;;;6.96;62.51
6680;BME280;3376;42.664;23.346;2023-03-15T02:39:41;93426.53;;;6.95;62.45
6680;BME280;3376;42.664;23.346;2023-03-15T02:42:08;93427.53;;;6.80;63.32
6680;BME280;3376;42.664;23.346;2023-03-15T02:44:40;93427.09;;;6.76;63.45
6680;BME280;3376;42.664;23.346;2023-03-15T02:47:11;93418.94;;;6.73;63.94
6680;BME280;3376;42.664;23.346;2023-03-15T02:49:41;93420.44;;;6.82;63.69
6680;BME280;3376;42.664;23.346;2023-03-15T02:52:09;93380.88;;;6.54;63.34
6680;BME280;3376;42.664;23.346;2023-03-15T02:54:38;93397.31;;;6.53;63.34
6680;BME280;3376;42.664;23.346;2023-03-15T02:57:07;93385.88;;;6.41;63.86
6680;BME280;3376;42.664;23.346;2023-03-15T02:59:34;93401.72;;;6.59;62.03
6680;BME280;3376;42.664;23.346;2023-03-15T03:02:03;93389.31;;;6.62;59.66
6680;BME280;3376;42.664;23.346;2023-03-15T03:04:30;93368.34;;;6.65;57.29
6680;BME280;3376;42.664;23.346;2023-03-15T03:06:57;93399.66;;;6.83;57.07
6680;BME280;3376;42.664;23.346;2023-03-15T03:09:24;93403.13;;;6.76;56.82
6680;BME280;3376;42.664;23.346;2023-03-15T03:11:51;93404.63;;;6.70;58.79
6680;BME280;3376;42.664;23.346;2023-03-15T03:14:18;93388.31;;;6.63;61.42
6680;BME280;3376;42.664;23.346;2023-03-15T03:16:48;93381.22;;;6.65;61.91
6680;BME280;3376;42.664;23.346;2023-03-15T03:19:16;93393.56;;;6.55;62.99
6680;BME280;3376;42.664;23.346;2023-03-15T03:21:43;93384.34;;;6.46;62.96
6680;BME280;3376;42.664;23.346;2023-03-15T03:24:10;93381.94;;;6.45;58.92
6680;BME280;3376;42.664;23.346;2023-03-15T03:26:40;93383.47;;;6.54;57.40
6680;BME280;3376;42.664;23.346;2023-03-15T03:29:10;93380.00;;;6.47;60.91
6680;BME280;3376;42.664;23.346;2023-03-15T03:31:37;93377.78;;;6.44;61.21
6680;BME280;3376;42.664;23.346;2023-03-15T03:34:04;93352.44;;;6.41;63.10
6680;BME280;3376;42.664;23.346;2023-03-15T03:36:32;93373.53;;;6.51;62.50
6680;BME280;3376;42.664;23.346;2023-03-15T03:38:58;93365.91;;;6.43;62.43
6680;BME280;3376;42.664;23.346;2023-03-15T03:41:26;93312.66;;;6.22;62.62
6680;BME280;3376;42.664;23.346;2023-03-15T03:43:52;93355.00;;;6.41;63.18
6680;BME280;3376;42.664;23.346;2023-03-15T03:46:19;93355.16;;;6.54;63.99
6680;BME280;3376;42.664;23.346;2023-03-15T03:48:46;93200.66;;;5.55;63.94
6680;BME280;3376;42.664;23.346;2023-03-15T03:51:13;93364.06;;;6.51;62.90
6680;BME280;3376;42.664;23.346;2023-03-15T03:53:41;93358.22;;;6.43;62.20
6680;BME280;3376;42.664;23.346;2023-03-15T03:56:08;93359.59;;;6.45;60.25
6680;BME280;3376;42.664;23.346;2023-03-15T03:58:34;93360.03;;;6.49;60.14
6680;BME280;3376;42.664;23.346;2023-03-15T04:01:02;93354.59;;;6.58;61.32
6680;BME280;3376;42.664;23.346;2023-03-15T04:03:29;93293.72;;;6.30;62.94
6680;BME280;3376;42.664;23.346;2023-03-15T04:05:57;93345.50;;;6.56;63.23
6680;BME280;3376;42.664;23.346;2023-03-15T04:08:25;93332.91;;;6.46;62.71
6680;BME280;3376;42.664;23.346;2023-03-15T04:10:55;93320.66;;;6.48;60.34
6680;BME280;3376;42.664;23.346;2023-03-15T04:13:22;93338.22;;;6.59;60.94
6680;BME280;3376;42.664;23.346;2023-03-15T04:15:50;93338.75;;;6.55;62.66
6680;BME280;3376;42.664;23.346;2023-03-15T04:18:22;93318.75;;;6.36;61.96
6680;BME280;3376;42.664;23.346;2023-03-15T04:20:48;93334.69;;;6.46;61.96
6680;BME280;3376;42.664;23.346;2023-03-15T04:23:19;93340.09;;;6.51;61.19
6680;BME280;3376;42.664;23.346;2023-03-15T04:25:47;93197.09;;;5.70;60.08
6680;BME280;3376;42.664;23.346;2023-03-15T04:28:16;93332.00;;;6.54;61.27
6680;BME280;3376;42.664;23.346;2023-03-15T04:30:43;93338.47;;;6.50;62.84
6680;BME280;3376;42.664;23.346;2023-03-15T04:33:11;93338.03;;;6.46;63.11
6680;BME280;3376;42.664;23.346;2023-03-15T04:35:38;93303.13;;;6.23;63.36
6680;BME280;3376;42.664;23.346;2023-03-15T04:38:07;93326.25;;;6.52;63.94
6680;BME280;3376;42.664;23.346;2023-03-15T04:40:34;93307.22;;;6.32;63.87
6680;BME280;3376;42.664;23.346;2023-03-15T04:43:02;93291.78;;;6.17;64.17
6680;BME280;3376;42.664;23.346;2023-03-15T04:45:32;93326.47;;;6.36;64.37
6680;BME280;3376;42.664;23.346;2023-03-15T04:47:59;93319.09;;;6.33;64.86
6680;BME280;3376;42.664;23.346;2023-03-15T04:50:26;93314.59;;;6.20;65.16
6680;BME280;3376;42.664;23.346;2023-03-15T04:52:54;93335.31;;;6.48;63.58
6680;BME280;3376;42.664;23.346;2023-03-15T04:55:20;93336.19;;;6.40;62.92
6680;BME280;3376;42.664;23.346;2023-03-15T04:57:47;93337.19;;;6.25;63.55
6680;BME280;3376;42.664;23.346;2023-03-15T05:02:42;93331.88;;;6.26;63.78
6680;BME280;3376;42.664;23.346;2023-03-15T05:05:12;93325.66;;;6.21;64.06
6680;BME280;3376;42.664;23.346;2023-03-15T05:07:38;93324.41;;;6.31;63.99
6680;BME280;3376;42.664;23.346;2023-03-15T05:10:06;93339.34;;;6.57;60.94
6680;BME280;3376;42.664;23.346;2023-03-15T05:12:33;93337.03;;;6.62;59.84
6680;BME280;3376;42.664;23.346;2023-03-15T05:14:59;93336.22;;;6.76;58.92
6680;BME280;3376;42.664;23.346;2023-03-15T05:17:26;93332.56;;;6.85;59.24
6680;BME280;3376;42.664;23.346;2023-03-15T05:19:54;93300.69;;;6.86;60.18
6680;BME280;3376;42.664;23.346;2023-03-15T05:22:21;93314.19;;;7.09;61.95
6680;BME280;3376;42.664;23.346;2023-03-15T05:24:50;93334.72;;;7.45;60.51
6680;BME280;3376;42.664;23.346;2023-03-15T05:27:18;93331.50;;;7.64;59.34
6680;BME280;3376;42.664;23.346;2023-03-15T05:29:44;93332.78;;;7.74;57.42
6680;BME280;3376;42.664;23.346;2023-03-15T05:32:11;93325.06;;;7.81;57.25
6680;BME280;3376;42.664;23.346;2023-03-15T05:34:38;93251.84;;;7.41;57.36
6680;BME280;3376;42.664;23.346;2023-03-15T05:37:08;93313.84;;;7.88;57.58
6680;BME280;3376;42.664;23.346;2023-03-15T05:39:36;93294.16;;;7.81;56.79
6680;BME280;3376;42.664;23.346;2023-03-15T05:42:04;93299.31;;;7.81;56.21
6680;BME280;3376;42.664;23.346;2023-03-15T05:44:31;93314.06;;;7.93;56.48
6680;BME280;3376;42.664;23.346;2023-03-15T05:46:58;93306.13;;;7.95;55.99
6680;BME280;3376;42.664;23.346;2023-03-15T05:49:25;93317.72;;;8.05;55.65
6680;BME280;3376;42.664;23.346;2023-03-15T05:51:51;93318.16;;;8.15;55.48
6680;BME280;3376;42.664;23.346;2023-03-15T05:54:19;93308.25;;;8.19;55.00
6680;BME280;3376;42.664;23.346;2023-03-15T05:56:46;93313.84;;;8.22;54.99
6680;BME280;3376;42.664;23.346;2023-03-15T05:59:13;93317.44;;;8.28;55.21
6680;BME280;3376;42.664;23.346;2023-03-15T06:01:40;93319.69;;;8.38;55.01
6680;BME280;3376;42.664;23.346;2023-03-15T06:04:06;93324.28;;;8.49;51.61
6680;BME280;3376;42.664;23.346;2023-03-15T06:06:33;93310.81;;;8.47;51.50
6680;BME280;3376;42.664;23.346;2023-03-15T06:09:00;93321.81;;;8.68;50.43
6680;BME280;3376;42.664;23.346;2023-03-15T06:11:28;93320.88;;;8.89;50.06
6680;BME280;3376;42.664;23.346;2023-03-15T06:13:55;93290.44;;;8.78;49.56
6680;BME280;3376;42.664;23.346;2023-03-15T06:16:22;93310.22;;;9.31;48.86
6680;BME280;3376;42.664;23.346;2023-03-15T06:18:48;93314.63;;;9.63;48.22
6680;BME280;3376;42.664;23.346;2023-03-15T06:21:15;93324.75;;;9.97;47.09
6680;BME280;3376;42.664;23.346;2023-03-15T06:23:42;93326.91;;;10.26;48.34
6680;BME280;3376;42.664;23.346;2023-03-15T06:26:09;93324.44;;;10.57;46.77
6680;BME280;3376;42.664;23.346;2023-03-15T06:28:37;93323.16;;;10.80;46.15
6680;BME280;3376;42.664;23.346;2023-03-15T06:31:06;93310.72;;;10.95;44.74
6680;BME280;3376;42.664;23.346;2023-03-15T06:33:33;93279.25;;;10.91;44.06
6680;BME280;3376;42.664;23.346;2023-03-15T06:36:00;93294.66;;;11.17;44.25
6680;BME280;3376;42.664;23.346;2023-03-15T06:38:27;93308.34;;;11.31;45.56
6680;BME280;3376;42.664;23.346;2023-03-15T06:40:54;93320.44;;;11.37;43.04
6680;BME280;3376;42.664;23.346;2023-03-15T06:43:22;93305.56;;;11.26;45.66
6680;BME280;3376;42.664;23.346;2023-03-15T06:45:51;93309.75;;;11.27;45.43
6680;BME280;3376;42.664;23.346;2023-03-15T06:48:20;93308.41;;;11.49;44.33
6680;BME280;3376;42.664;23.346;2023-03-15T06:50:47;93302.84;;;11.76;42.86
6680;BME280;3376;42.664;23.346;2023-03-15T06:53:13;93304.34;;;12.09;42.39
6680;BME280;3376;42.664;23.346;2023-03-15T06:55:40;93311.66;;;12.36;41.58
6680;BME280;3376;42.664;23.346;2023-03-15T06:58:07;93310.66;;;12.55;41.07
6680;BME280;3376;42.664;23.346;2023-03-15T07:00:34;93305.69;;;12.54;41.15
6680;BME280;3376;42.664;23.346;2023-03-15T07:03:02;93245.66;;;12.08;41.78
6680;BME280;3376;42.664;23.346;2023-03-15T07:05:29;93299.66;;;12.17;42.20
6680;BME280;3376;42.664;23.346;2023-03-15T07:07:55;93294.25;;;12.19;41.43
6680;BME280;3376;42.664;23.346;2023-03-15T07:10:23;93291.75;;;12.48;41.78
6680;BME280;3376;42.664;23.346;2023-03-15T07:12:49;93292.50;;;13.03;41.66
6680;BME280;3376;42.664;23.346;2023-03-15T07:15:16;93294.66;;;13.36;39.39
6680;BME280;3376;42.664;23.346;2023-03-15T07:17:43;93287.09;;;13.46;39.33
6680;BME280;3376;42.664;23.346;2023-03-15T07:20:12;93293.25;;;13.63;39.29
6680;BME280;3376;42.664;23.346;2023-03-15T07:22:39;93296.00;;;13.91;38.75
6680;BME280;3376;42.664;23.346;2023-03-15T07:25:06;93290.56;;;13.81;39.16
6680;BME280;3376;42.664;23.346;2023-03-15T07:27:33;93293.81;;;13.53;40.13
6680;BME280;3376;42.664;23.346;2023-03-15T07:30:00;93290.28;;;13.48;40.44
6680;BME280;3376;42.664;23.346;2023-03-15T07:32:27;93298.16;;;13.71;38.51
6680;BME280;3376;42.664;23.346;2023-03-15T07:34:55;93290.56;;;13.92;38.07
6680;BME280;3376;42.664;23.346;2023-03-15T07:37:26;93298.41;;;14.39;36.97
6680;BME280;3376;42.664;23.346;2023-03-15T07:39:53;93302.75;;;14.84;36.28
6680;BME280;3376;42.664;23.346;2023-03-15T07:42:20;93309.72;;;15.35;35.41
6680;BME280;3376;42.664;23.346;2023-03-15T07:44:46;93303.66;;;15.91;35.02
6680;BME280;3376;42.664;23.346;2023-03-15T07:47:13;93295.97;;;16.72;34.56
6680;BME280;3376;42.664;23.346;2023-03-15T07:49:40;93266.44;;;17.20;32.49
6680;BME280;3376;42.664;23.346;2023-03-15T07:52:07;93294.25;;;17.47;30.70
6680;BME280;3376;42.664;23.346;2023-03-15T07:54:35;93299.94;;;17.44;31.04
6680;BME280;3376;42.664;23.346;2023-03-15T07:57:03;93288.91;;;16.94;31.36
6680;BME280;3376;42.664;23.346;2023-03-15T07:59:30;93290.81;;;16.77;31.88
6680;BME280;3376;42.664;23.346;2023-03-15T08:01:56;93289.44;;;16.53;32.48
6680;BME280;3376;42.664;23.346;2023-03-15T08:04:23;93282.19;;;16.22;33.05
6680;BME280;3376;42.664;23.346;2023-03-15T08:06:50;93250.16;;;15.77;33.58
6680;BME280;3376;42.664;23.346;2023-03-15T08:09:17;93291.88;;;15.88;34.35
6680;BME280;3376;42.664;23.346;2023-03-15T08:11:45;93282.28;;;15.61;34.50
6680;BME280;3376;42.664;23.346;2023-03-15T08:14:12;93277.63;;;15.63;34.10
6680;BME280;3376;42.664;23.346;2023-03-15T08:16:38;93274.28;;;15.51;33.67
6680;BME280;3376;42.664;23.346;2023-03-15T08:19:05;93274.56;;;15.09;34.48
6680;BME280;3376;42.664;23.346;2023-03-15T08:21:32;93253.59;;;15.04;35.42
6680;BME280;3376;42.664;23.346;2023-03-15T08:23:59;93244.25;;;15.37;34.88
6680;BME280;3376;42.664;23.346;2023-03-15T08:26:26;93263.75;;;16.12;33.96
6680;BME280;3376;42.664;23.346;2023-03-15T08:28:54;93260.25;;;16.61;33.19
6680;BME280;3376;42.664;23.346;2023-03-15T08:31:20;93257.03;;;16.97;33.38
6680;BME280;3376;42.664;23.346;2023-03-15T08:33:47;93257.84;;;17.24;34.20
6680;BME280;3376;42.664;23.346;2023-03-15T08:36:14;93256.97;;;17.40;32.11
6680;BME280;3376;42.664;23.346;2023-03-15T08:38:41;93257.63;;;17.26;31.35
6680;BME280;3376;42.664;23.346;2023-03-15T08:41:07;93258.06;;;17.44;32.13
6680;BME280;3376;42.664;23.346;2023-03-15T08:43:34;93270.50;;;17.59;31.27
6680;BME280;3376;42.664;23.346;2023-03-15T08:46:02;93201.91;;;17.62;31.18
6680;BME280;3376;42.664;23.346;2023-03-15T08:48:30;93221.44;;;18.18;30.29
6680;BME280;3376;42.664;23.346;2023-03-15T08:51:01;93252.72;;;18.29;30.54
6680;BME280;3376;42.664;23.346;2023-03-15T08:53:28;93231.19;;;17.86;30.38
6680;BME280;3376;42.664;23.346;2023-03-15T08:55:55;93260.34;;;17.94;31.09
6680;BME280;3376;42.664;23.346;2023-03-15T08:58:22;93258.72;;;17.56;31.25
6680;BME280;3376;42.664;23.346;2023-03-15T09:00:49;93223.97;;;16.65;32.61
6680;BME280;3376;42.664;23.346;2023-03-15T09:03:17;93261.00;;;16.57;32.80
6680;BME280;3376;42.664;23.346;2023-03-15T09:05:44;93263.59;;;16.57;33.15
6680;BME280;3376;42.664;23.346;2023-03-15T09:08:11;93263.31;;;16.36;33.51
6680;BME280;3376;42.664;23.346;2023-03-15T09:10:38;93253.38;;;16.17;33.18
6680;BME280;3376;42.664;23.346;2023-03-15T09:13:05;93220.75;;;15.65;33.96
6680;BME280;3376;42.664;23.346;2023-03-15T09:15:32;93268.25;;;15.67;33.97
6680;BME280;3376;42.664;23.346;2023-03-15T09:17:59;93262.63;;;15.42;34.45
6680;BME280;3376;42.664;23.346;2023-03-15T09:20:27;93260.16;;;15.07;34.98
6680;BME280;3376;42.664;23.346;2023-03-15T09:22:55;93268.66;;;14.74;35.30
6680;BME280;3376;42.664;23.346;2023-03-15T09:25:24;93259.63;;;14.65;35.69
6680;BME280;3376;42.664;23.346;2023-03-15T09:27:51;93247.13;;;14.28;36.06
6680;BME280;3376;42.664;23.346;2023-03-15T09:30:18;93258.00;;;14.36;36.86
6680;BME280;3376;42.664;23.346;2023-03-15T09:32:45;93249.28;;;14.31;37.15
6680;BME280;3376;42.664;23.346;2023-03-15T09:35:14;93256.59;;;14.45;36.38
6680;BME280;3376;42.664;23.346;2023-03-15T09:37:42;93138.78;;;13.92;36.67
6680;BME280;3376;42.664;23.346;2023-03-15T09:40:15;93248.13;;;14.89;36.09
6680;BME280;3376;42.664;23.346;2023-03-15T09:42:55;93239.06;;;15.08;36.47
6680;BME280;3376;42.664;23.346;2023-03-15T09:45:30;93237.88;;;15.16;36.03
6680;BME280;3376;42.664;23.346;2023-03-15T09:48:05;93235.44;;;15.09;36.23
6680;BME280;3376;42.664;23.346;2023-03-15T09:50:36;93233.84;;;15.08;37.69
6680;BME280;3376;42.664;23.346;2023-03-15T09:53:12;93233.91;;;14.69;36.94
6680;BME280;3376;42.664;23.346;2023-03-15T09:55:41;93215.84;;;14.39;37.11
6680;BME280;3376;42.664;23.346;2023-03-15T09:58:10;93226.41;;;14.33;37.89
6680;BME280;3376;42.664;23.346;2023-03-15T10:00:42;93220.25;;;14.39;37.82
6680;BME280;3376;42.664;23.346;2023-03-15T10:03:15;93224.22;;;14.41;38.39
6680;BME280;3376;42.664;23.346;2023-03-15T10:05:46;93224.88;;;14.48;37.19
6680;BME280;3376;42.664;23.346;2023-03-15T10:08:16;93223.28;;;14.47;38.00
6680;BME280;3376;42.664;23.346;2023-03-15T10:10:49;93221.72;;;14.46;38.30
6680;BME280;3376;42.664;23.346;2023-03-15T10:13:37;93228.41;;;14.42;37.93
6680;BME280;3376;42.664;23.346;2023-03-15T10:16:20;93219.25;;;14.28;37.81
6680;BME280;3376;42.664;23.346;2023-03-15T10:18:59;93232.38;;;14.33;37.79
6680;BME280;3376;42.664;23.346;2023-03-15T10:21:35;93223.56;;;14.34;38.23
6680;BME280;3376;42.664;23.346;2023-03-15T10:24:13;93226.81;;;14.18;38.51
6680;BME280;3376;42.664;23.346;2023-03-15T10:26:41;93231.47;;;14.16;38.13
6680;BME280;3376;42.664;23.346;2023-03-15T10:29:13;93231.50;;;14.28;38.02
6680;BME280;3376;42.664;23.346;2023-03-15T10:31:43;93221.38;;;14.19;37.55
6680;BME280;3376;42.664;23.346;2023-03-15T10:34:12;93212.34;;;14.22;37.52
6680;BME280;3376;42.664;23.346;2023-03-15T10:36:43;93219.00;;;14.18;38.04
6680;BME280;3376;42.664;23.346;2023-03-15T10:39:12;93222.63;;;14.05;38.50
6680;BME280;3376;42.664;23.346;2023-03-15T10:41:40;93227.19;;;13.87;39.05
6680;BME280;3376;42.664;23.346;2023-03-15T10:44:12;93221.53;;;13.90;39.33
6680;BME280;3376;42.664;23.346;2023-03-15T10:46:39;93202.44;;;13.73;39.36
6680;BME280;3376;42.664;23.346;2023-03-15T10:49:10;93208.84;;;13.82;39.42
6680;BME280;3376;42.664;23.346;2023-03-15T10:51:39;93200.59;;;13.62;39.73
6680;BME280;3376;42.664;23.346;2023-03-15T10:54:14;93225.28;;;13.71;39.52
6680;BME280;3376;42.664;23.346;2023-03-15T10:56:45;93205.13;;;13.55;40.30
6680;BME280;3376;42.664;23.346;2023-03-15T10:59:18;93219.03;;;13.72;38.90
6680;BME280;3376;42.664;23.346;2023-03-15T11:01:47;93220.72;;;13.66;39.11
6680;BME280;3376;42.664;23.346;2023-03-15T11:04:17;93216.66;;;13.59;39.39
6680;BME280;3376;42.664;23.346;2023-03-15T11:06:47;93212.13;;;13.54;39.34
6680;BME280;3376;42.664;23.346;2023-03-15T11:09:17;93199.81;;;13.50;39.49
6680;BME280;3376;42.664;23.346;2023-03-15T11:11:50;93208.50;;;13.44;39.33
6680;BME280;3376;42.664;23.346;2023-03-15T11:14:17;93209.97;;;13.63;39.19
6680;BME280;3376;42.664;23.346;2023-03-15T11:16:47;93205.47;;;13.58;40.20
6680;BME280;3376;42.664;23.346;2023-03-15T11:19:15;93192.91;;;13.67;39.56
6680;BME280;3376;42.664;23.346;2023-03-15T11:21:44;93190.66;;;13.70;39.96
6680;BME280;3376;42.664;23.346;2023-03-15T11:24:21;93159.28;;;13.42;40.48
6680;BME280;3376;42.664;23.346;2023-03-15T11:26:49;93203.31;;;13.78;40.11
6680;BME280;3376;42.664;23.346;2023-03-15T11:29:22;93212.94;;;13.78;39.66
6680;BME280;3376;42.664;23.346;2023-03-15T11:31:50;93212.81;;;13.84;39.32
6680;BME280;3376;42.664;23.346;2023-03-15T11:34:26;93207.38;;;13.97;38.87
6680;BME280;3376;42.664;23.346;2023-03-15T11:36:59;93197.19;;;13.96;38.56
6680;BME280;3376;42.664;23.346;2023-03-15T11:39:35;93186.41;;;14.04;39.96
6680;BME280;3376;42.664;23.346;2023-03-15T11:42:05;93190.94;;;13.97;40.28
6680;BME280;3376;42.664;23.346;2023-03-15T11:44:38;92852.25;;;11.77;38.67
6680;BME280;3376;42.664;23.346;2023-03-15T11:47:10;93192.78;;;13.85;38.94
6680;BME280;3376;42.664;23.346;2023-03-15T11:49:43;93185.88;;;13.90;38.63
6680;BME280;3376;42.664;23.346;2023-03-15T11:52:12;93188.13;;;13.87;38.50
6680;BME280;3376;42.664;23.346;2023-03-15T11:54:42;93191.41;;;13.48;38.87
6680;BME280;3376;42.664;23.346;2023-03-15T12:03:29;93195.72;;;13.42;39.94
6680;BME280;3376;42.664;23.346;2023-03-15T12:06:03;93136.38;;;12.86;39.89
6680;BME280;3376;42.664;23.346;2023-03-15T12:08:46;93151.06;;;12.92;40.70
6680;BME280;3376;42.664;23.346;2023-03-15T12:11:37;93168.81;;;13.37;40.37
6680;BME280;3376;42.664;23.346;2023-03-15T12:14:20;93168.47;;;13.33;42.13
6680;BME280;3376;42.664;23.346;2023-03-15T12:16:48;92970.28;;;11.98;41.07
6680;BME280;3376;42.664;23.346;2023-03-15T12:19:17;93160.78;;;13.38;41.20
6680;BME280;3376;42.664;23.346;2023-03-15T12:21:47;93128.09;;;13.31;41.31
6680;BME280;3376;42.664;23.346;2023-03-15T12:24:20;93137.34;;;13.27;41.04
6680;BME280;3376;42.664;23.346;2023-03-15T12:26:58;93170.03;;;13.46;40.51
6680;BME280;3376;42.664;23.346;2023-03-15T12:29:27;93160.31;;;13.41;40.21
6680;BME280;3376;42.664;23.346;2023-03-15T12:32:03;93155.22;;;13.35;41.54
6680;BME280;3376;42.664;23.346;2023-03-15T12:34:43;93144.78;;;13.12;41.44
6680;BME280;3376;42.664;23.346;2023-03-15T12:37:15;93138.59;;;13.24;42.19
6680;BME280;3376;42.664;23.346;2023-03-15T12:39:46;93031.38;;;12.64;40.60
6680;BME280;3376;42.664;23.346;2023-03-15T12:45:44;93148.34;;;13.52;40.94
6680;BME280;3376;42.664;23.346;2023-03-15T12:48:28;93152.50;;;13.53;40.66
6680;BME280;3376;42.664;23.346;2023-03-15T12:51:03;93146.97;;;13.38;42.58
6680;BME280;3376;42.664;23.346;2023-03-15T12:53:38;93149.13;;;13.41;44.12
6680;BME280;3376;42.664;23.346;2023-03-15T12:56:28;93152.94;;;13.27;46.04
6680;BME280;3376;42.664;23.346;2023-03-15T12:59:03;93137.91;;;13.06;47.65
6680;BME280;3376;42.664;23.346;2023-03-15T13:01:31;93143.38;;;12.86;48.64
6680;BME280;3376;42.664;23.346;2023-03-15T13:03:58;93151.47;;;12.66;49.97
6680;BME280;3376;42.664;23.346;2023-03-15T13:06:35;93153.22;;;12.54;49.86
6680;BME280;3376;42.664;23.346;2023-03-15T13:09:12;93144.72;;;12.47;49.84
6680;BME280;3376;42.664;23.346;2023-03-15T13:11:49;93141.19;;;12.42;50.39
6680;BME280;3376;42.664;23.346;2023-03-15T13:14:35;93131.06;;;12.52;50.34
6680;BME280;3376;42.664;23.346;2023-03-15T13:17:08;93135.28;;;12.64;49.59
6680;BME280;3376;42.664;23.346;2023-03-15T13:19:44;93137.81;;;12.82;49.32
6680;BME280;3376;42.664;23.346;2023-03-15T13:22:20;93138.97;;;12.98;48.78
6680;BME280;3376;42.664;23.346;2023-03-15T13:24:53;93141.28;;;13.06;46.88
6680;BME280;3376;42.664;23.346;2023-03-15T13:27:34;93146.28;;;13.08;48.07
6680;BME280;3376;42.664;23.346;2023-03-15T13:30:25;93141.84;;;13.08;47.22
6680;BME280;3376;42.664;23.346;2023-03-15T13:33:03;92975.47;;;11.98;47.31
6680;BME280;3376;42.664;23.346;2023-03-15T13:35:30;93098.72;;;12.77;45.74
6680;BME280;3376;42.664;23.346;2023-03-15T13:38:05;93156.34;;;13.16;45.47